Time;durP1;ratioP1;P1;durP2;ratioP2;P2;SDS_P1;SDS_P2;PMS_P1;PMS_P2;Temp;Humidity;BMP_temperature;BMP_pressure;BME280_temperature;BME280_humidity;BME280_pressure;Samples;Min_cycle;Max_cycle;Signal;HPM_P1;HPM_P2
2022/01/19 00:01:30;;;;;;;8.50;6.57;;;0.00;99.90;;;;;;5009010;28;20042;-50
2022/01/19 00:03:56;;;;;;;5.68;5.03;;;0.00;99.90;;;;;;5026838;28;20047;-52
2022/01/19 00:06:22;;;;;;;19.38;6.30;;;0.00;99.90;;;;;;5032577;28;20034;-50
2022/01/19 00:08:48;;;;;;;6.68;5.20;;;-0.10;99.90;;;;;;5028912;28;20454;-50
2022/01/19 00:11:14;;;;;;;11.18;5.15;;;0.00;99.90;;;;;;5020934;28;20113;-50
2022/01/19 00:13:39;;;;;;;8.98;4.65;;;0.00;99.90;;;;;;5027323;28;20041;-52
2022/01/19 00:16:05;;;;;;;10.05;5.40;;;0.00;99.90;;;;;;5028731;28;20029;-50
2022/01/19 00:18:31;;;;;;;7.55;4.32;;;0.00;99.90;;;;;;5020433;28;20033;-50
2022/01/19 00:20:57;;;;;;;8.90;5.22;;;0.00;99.90;;;;;;5025826;28;20115;-51
2022/01/19 00:23:23;;;;;;;9.45;4.50;;;0.00;99.90;;;;;;5028761;28;20076;-51
2022/01/19 00:25:51;;;;;;;8.30;4.82;;;0.00;99.90;;;;;;5028311;28;20426;-51
2022/01/19 00:28:18;;;;;;;7.53;5.22;;;0.00;99.90;;;;;;5029343;28;22138;-50
2022/01/19 00:30:44;;;;;;;12.43;4.43;;;0.00;99.90;;;;;;5025052;28;20714;-51
2022/01/19 00:33:10;;;;;;;6.30;4.70;;;0.00;99.90;;;;;;5019475;28;20029;-51
2022/01/19 00:35:36;;;;;;;11.00;4.50;;;0.00;99.90;;;;;;5021225;28;20029;-51
2022/01/19 00:38:08;;;;;;;8.60;4.47;;;0.00;99.90;;;;;;5022027;28;20482;-51
2022/01/19 00:40:35;;;;;;;7.45;4.32;;;0.00;99.90;;;;;;5036398;28;20036;-51
2022/01/19 00:43:00;;;;;;;8.20;4.10;;;0.00;99.90;;;;;;5037454;28;20040;-51
2022/01/19 00:45:26;;;;;;;6.45;4.38;;;0.00;99.90;;;;;;5033896;28;21609;-51
2022/01/19 00:47:52;;;;;;;4.80;3.85;;;0.00;99.90;;;;;;5017615;28;20026;-51
2022/01/19 00:50:23;;;;;;;13.40;4.18;;;-0.10;99.90;;;;;;5021230;28;20030;-51
2022/01/19 00:52:51;;;;;;;5.90;4.38;;;-0.10;99.90;;;;;;5021887;28;20501;-51
2022/01/19 00:55:17;;;;;;;11.13;4.70;;;-0.10;99.90;;;;;;5023508;28;20398;-51
2022/01/19 00:57:43;;;;;;;6.32;3.20;;;-0.20;99.90;;;;;;5030315;28;20658;-52
2022/01/19 01:00:12;;;;;;;9.18;4.20;;;-0.10;99.90;;;;;;5022620;28;20061;-52
2022/01/19 01:02:38;;;;;;;6.18;3.67;;;-0.10;99.90;;;;;;5020983;28;20502;-51
2022/01/19 01:05:05;;;;;;;8.13;4.40;;;-0.10;99.90;;;;;;5033326;28;20079;-52
2022/01/19 01:07:33;;;;;;;4.47;3.17;;;-0.20;99.90;;;;;;5027747;28;20488;-51
2022/01/19 01:10:00;;;;;;;9.27;4.43;;;-0.30;99.90;;;;;;5039285;28;20116;-51
2022/01/19 01:12:42;;;;;;;5.45;3.33;;;-0.30;99.90;;;;;;5010843;28;20049;-51
2022/01/19 01:20:29;;;;;;;6.85;3.42;;;-0.40;99.90;;;;;;5016520;28;20172;-51
2022/01/19 01:22:55;;;;;;;4.93;3.30;;;-0.40;99.90;;;;;;5025242;28;20071;-51
2022/01/19 01:25:21;;;;;;;7.03;4.30;;;-0.40;99.90;;;;;;5021078;28;20424;-51
2022/01/19 01:27:47;;;;;;;6.20;3.15;;;-0.40;99.90;;;;;;5014925;28;20083;-52
2022/01/19 01:30:13;;;;;;;4.53;3.85;;;-0.40;99.90;;;;;;5012575;28;20685;-50
2022/01/19 01:32:38;;;;;;;8.50;4.72;;;-0.40;99.90;;;;;;5018301;28;20053;-51
2022/01/19 01:35:04;;;;;;;4.90;2.90;;;-0.40;99.90;;;;;;5013606;28;20037;-51
2022/01/19 01:37:30;;;;;;;7.20;4.15;;;-0.40;99.90;;;;;;5023194;28;20584;-51
2022/01/19 01:39:56;;;;;;;9.88;4.03;;;-0.40;99.90;;;;;;5013559;28;20140;-52
2022/01/19 01:42:23;;;;;;;7.75;4.32;;;-0.40;99.90;;;;;;5020991;28;20132;-52
2022/01/19 01:44:52;;;;;;;7.00;4.13;;;-0.50;99.90;;;;;;5020693;28;20018;-51
2022/01/19 01:47:20;;;;;;;4.88;3.90;;;-0.50;99.90;;;;;;5030497;28;20060;-51
2022/01/19 01:54:58;;;;;;;5.47;3.47;;;-0.60;99.90;;;;;;5019030;28;20039;-51
2022/01/19 01:57:24;;;;;;;5.80;3.17;;;-0.70;99.90;;;;;;5043814;28;20043;-51
2022/01/19 01:59:50;;;;;;;6.63;2.95;;;-0.70;99.90;;;;;;5012988;28;20459;-50
2022/01/19 02:02:16;;;;;;;7.40;3.65;;;-0.60;99.90;;;;;;5035536;28;21348;-51
2022/01/19 02:04:42;;;;;;;7.60;4.15;;;-0.70;99.90;;;;;;5009983;28;20037;-51
2022/01/19 02:09:49;;;;;;;8.32;4.53;;;-0.70;99.90;;;;;;5020105;28;20041;-51
2022/01/19 02:23:24;;;;;;;5.85;3.28;;;-1.10;99.90;;;;;;5017141;28;20045;-51
2022/01/19 02:25:55;;;;;;;8.00;3.65;;;-1.10;99.90;;;;;;5029008;28;22810;-49
2022/01/19 02:41:39;;;;;;;8.27;3.83;;;-1.10;99.90;;;;;;5021296;28;20107;-51
2022/01/19 02:44:09;;;;;;;6.82;3.75;;;-1.10;99.90;;;;;;5020649;28;20043;-53
2022/01/19 02:49:15;;;;;;;;;;;-1.00;99.90;;;;;;5018541;28;20045;-52
2022/01/19 02:51:45;;;;;;;4.17;2.90;;;-1.00;99.90;;;;;;5028158;28;19996;-51
2022/01/19 02:54:13;;;;;;;4.05;2.97;;;-0.90;99.90;;;;;;5024671;28;20521;-49
2022/01/19 02:56:41;;;;;;;4.37;2.83;;;-1.00;99.90;;;;;;5023278;28;20040;-50
2022/01/19 02:59:16;;;;;;;5.53;2.67;;;-1.00;99.90;;;;;;5003989;28;20287;-50
2022/01/19 03:09:45;;;;;;;4.45;3.78;;;-1.20;99.90;;;;;;5028112;28;20033;-51
2022/01/19 03:12:11;;;;;;;9.45;3.58;;;-1.20;99.90;;;;;;5026402;28;20040;-51
2022/01/19 03:14:37;;;;;;;3.95;2.97;;;-1.30;99.90;;;;;;5013435;28;20394;-51
2022/01/19 03:17:05;;;;;;;5.40;3.65;;;-1.30;99.90;;;;;;5038709;28;20033;-50
2022/01/19 03:19:31;;;;;;;3.90;2.38;;;-1.30;99.90;;;;;;5025729;28;20071;-50
2022/01/19 03:21:58;;;;;;;5.10;4.03;;;-1.30;99.90;;;;;;5019010;28;20482;-51
2022/01/19 03:24:24;;;;;;;4.82;3.70;;;-1.40;99.90;;;;;;5024852;28;20037;-51
2022/01/19 03:26:50;;;;;;;34.38;15.13;;;-1.40;99.90;;;;;;5035437;28;20043;-51
2022/01/19 03:29:16;;;;;;;12.10;5.63;;;-1.30;99.90;;;;;;5017065;28;20025;-50
2022/01/19 03:31:42;;;;;;;7.63;3.08;;;-1.30;99.90;;;;;;5021492;28;20104;-50
2022/01/19 03:34:07;;;;;;;4.75;3.03;;;-1.30;99.90;;;;;;5027495;28;20061;-50
2022/01/19 03:36:34;;;;;;;3.80;3.35;;;-1.30;99.90;;;;;;5024431;28;20098;-51
2022/01/19 03:39:00;;;;;;;7.38;4.38;;;-1.20;99.90;;;;;;5012332;28;20030;-51
2022/01/19 03:41:25;;;;;;;11.05;5.05;;;-1.30;99.90;;;;;;5038499;28;20404;-51
2022/01/19 03:43:52;;;;;;;31.83;11.35;;;-1.30;99.90;;;;;;5015482;28;20052;-51
2022/01/19 03:46:18;;;;;;;49.65;19.98;;;-1.40;99.90;;;;;;5041189;28;20478;-51
2022/01/19 03:49:08;;;;;;;13.18;5.53;;;-1.30;99.90;;;;;;5035461;28;20025;-52
2022/01/19 03:51:33;;;;;;;3.05;2.63;;;-1.30;99.90;;;;;;5033666;28;20025;-50
2022/01/19 03:53:59;;;;;;;3.67;3.22;;;-1.20;99.90;;;;;;5028014;28;20034;-51
2022/01/19 03:56:25;;;;;;;4.10;3.28;;;-1.20;99.90;;;;;;5023238;28;20033;-52
2022/01/19 03:58:50;;;;;;;6.05;3.40;;;-1.10;99.90;;;;;;5021404;28;20032;-51
2022/01/19 04:01:17;;;;;;;4.65;3.30;;;-1.10;99.90;;;;;;5021833;28;20505;-51
2022/01/19 04:06:51;;;;;;;4.65;2.80;;;-1.20;99.90;;;;;;5021246;28;20078;-51
2022/01/19 04:09:12;;;;;;;4.60;3.40;;;-1.30;99.90;;;;;;5016632;28;20391;-51
2022/01/19 04:11:37;;;;;;;6.38;3.33;;;-1.30;99.90;;;;;;5024860;28;20033;-51
2022/01/19 04:16:29;;;;;;;4.95;3.17;;;-1.40;99.90;;;;;;5020510;28;20026;-50
2022/01/19 04:19:06;;;;;;;3.03;2.38;;;-1.40;99.90;;;;;;5024129;28;20033;-50
2022/01/19 04:21:32;;;;;;;4.28;3.75;;;-1.40;99.90;;;;;;5022926;28;20033;-51
2022/01/19 04:23:58;;;;;;;3.47;3.13;;;-1.40;99.90;;;;;;5022968;28;20045;-51
2022/01/19 04:26:23;;;;;;;3.03;2.67;;;-1.40;99.90;;;;;;5036538;28;20021;-52
2022/01/19 04:28:49;;;;;;;22.83;4.30;;;-1.40;99.90;;;;;;5021302;28;20033;-50
2022/01/19 04:31:15;;;;;;;4.15;3.17;;;-1.50;99.90;;;;;;5032852;28;20034;-50
2022/01/19 04:33:43;;;;;;;3.58;3.20;;;-1.50;99.90;;;;;;5026374;28;20037;-51
2022/01/19 04:37:28;;;;;;;7.00;3.65;;;-1.50;99.90;;;;;;5020965;28;20045;-51
2022/01/19 04:43:49;;;;;;;3.17;2.95;;;-1.50;99.90;;;;;;5004475;28;20037;-50
2022/01/19 04:48:05;;;;;;;4.95;4.47;;;-1.60;99.90;;;;;;4995587;28;20045;-53
2022/01/19 05:06:26;;;;;;;3.78;3.40;;;-1.50;99.90;;;;;;5024095;28;20049;-50
2022/01/19 05:08:58;;;;;;;3.25;2.95;;;-1.40;99.90;;;;;;5020519;28;20053;-51
2022/01/19 05:14:08;;;;;;;7.57;3.75;;;-1.40;99.90;;;;;;5019096;28;20048;-50
2022/01/19 05:16:34;;;;;;;5.30;3.45;;;-1.40;99.90;;;;;;5028525;28;20047;-51
2022/01/19 05:19:00;;;;;;;4.57;3.60;;;-1.40;99.90;;;;;;5016602;28;20029;-51
2022/01/19 05:21:25;;;;;;;4.65;3.35;;;-1.30;99.90;;;;;;5015307;28;20076;-51
2022/01/19 05:23:51;;;;;;;6.68;4.00;;;-1.30;99.90;;;;;;5028243;28;20025;-53
2022/01/19 05:26:17;;;;;;;11.98;3.78;;;-1.20;99.90;;;;;;5028440;28;20053;-51
2022/01/19 05:28:43;;;;;;;5.80;3.20;;;-1.20;99.90;;;;;;5026747;28;20079;-51
2022/01/19 05:31:08;;;;;;;6.55;4.53;;;-1.10;99.90;;;;;;5021360;28;20045;-51
2022/01/19 05:33:34;;;;;;;14.32;5.53;;;-1.10;99.90;;;;;;5030544;28;20047;-50
2022/01/19 05:36:00;;;;;;;9.38;5.45;;;-1.00;99.90;;;;;;5007698;28;20575;-51
2022/01/19 05:38:26;;;;;;;9.57;4.25;;;-1.00;99.90;;;;;;5035644;28;20504;-53
2022/01/19 05:40:51;;;;;;;12.73;5.38;;;-1.00;99.90;;;;;;5012049;28;20103;-51
2022/01/19 05:43:17;;;;;;;7.13;4.03;;;-0.90;99.90;;;;;;5037426;28;20033;-51
2022/01/19 05:45:43;;;;;;;7.75;3.40;;;-0.90;99.90;;;;;;5013014;28;20108;-51
2022/01/19 05:48:09;;;;;;;5.70;3.55;;;-0.90;99.90;;;;;;5016262;28;20029;-50
2022/01/19 05:50:35;;;;;;;5.72;4.53;;;-0.90;99.90;;;;;;5020913;28;20041;-53
2022/01/19 05:53:00;;;;;;;8.98;3.90;;;-0.90;99.90;;;;;;5019331;28;20038;-51
2022/01/19 05:55:26;;;;;;;5.25;3.40;;;-0.90;99.90;;;;;;5034333;28;20035;-51
2022/01/19 05:57:53;;;;;;;5.22;3.60;;;-0.80;99.90;;;;;;5033063;28;20055;-51
2022/01/19 06:00:18;;;;;;;8.18;5.13;;;-0.80;99.90;;;;;;5028176;28;20032;-51
2022/01/19 06:02:44;;;;;;;5.78;4.13;;;-0.70;99.90;;;;;;5020099;28;21863;-50
2022/01/19 06:05:10;;;;;;;10.15;4.07;;;-0.70;99.90;;;;;;5031059;28;20375;-51
2022/01/19 06:07:42;;;;;;;7.10;5.13;;;-0.70;99.90;;;;;;5034061;28;20086;-51
2022/01/19 06:10:11;;;;;;;5.70;3.03;;;-0.70;99.90;;;;;;5018890;28;20398;-52
2022/01/19 06:12:38;;;;;;;6.32;4.13;;;-0.70;99.90;;;;;;5021627;28;20482;-51
2022/01/19 06:15:06;;;;;;;5.80;4.00;;;-0.60;99.90;;;;;;5038545;28;20091;-50
2022/01/19 06:17:31;;;;;;;5.35;3.60;;;-0.60;99.90;;;;;;5021336;28;20025;-51
2022/01/19 06:19:57;;;;;;;7.43;3.95;;;-0.60;99.90;;;;;;5014021;28;20070;-51
2022/01/19 06:22:23;;;;;;;4.75;3.92;;;-0.60;99.90;;;;;;5019949;28;20159;-51
2022/01/19 06:24:48;;;;;;;7.30;4.68;;;-0.60;99.90;;;;;;5041680;28;20033;-53
2022/01/19 06:27:14;;;;;;;7.75;4.15;;;-0.50;99.90;;;;;;5016464;28;20490;-51
2022/01/19 06:29:40;;;;;;;6.45;4.10;;;-0.50;99.90;;;;;;5013633;28;20545;-51
2022/01/19 06:32:06;;;;;;;8.45;4.10;;;-0.50;99.90;;;;;;5009896;28;20113;-50
2022/01/19 06:34:32;;;;;;;4.95;3.70;;;-0.50;99.90;;;;;;5012344;28;20315;-50
2022/01/19 06:36:57;;;;;;;4.15;3.75;;;-0.50;99.90;;;;;;5012511;28;20229;-51
2022/01/19 06:39:23;;;;;;;5.03;4.10;;;-0.40;99.90;;;;;;5009262;28;20038;-50
2022/01/19 06:41:49;;;;;;;5.97;4.45;;;-0.40;99.90;;;;;;5016397;28;20033;-52
2022/01/19 06:44:15;;;;;;;5.38;4.05;;;-0.40;99.90;;;;;;5014754;28;20559;-50
2022/01/19 06:46:42;;;;;;;10.07;5.28;;;-0.40;99.90;;;;;;5020478;28;20029;-51
2022/01/19 06:49:08;;;;;;;5.47;3.97;;;-0.40;99.90;;;;;;5023683;28;20075;-50
2022/01/19 06:51:33;;;;;;;5.45;3.88;;;-0.40;99.90;;;;;;5016056;28;20261;-50
2022/01/19 06:53:59;;;;;;;5.10;4.60;;;-0.30;99.90;;;;;;5014129;28;20047;-50
2022/01/19 06:56:25;;;;;;;6.63;4.30;;;-0.30;99.90;;;;;;5013222;28;21809;-52
2022/01/19 06:58:50;;;;;;;4.65;3.83;;;-0.30;99.90;;;;;;5010537;28;20490;-50
2022/01/19 07:01:16;;;;;;;7.90;5.35;;;-0.30;99.90;;;;;;5010840;28;20436;-50
2022/01/19 07:03:42;;;;;;;5.57;4.00;;;-0.30;99.90;;;;;;5012399;28;20490;-50
2022/01/19 07:06:11;;;;;;;9.18;4.90;;;-0.30;99.90;;;;;;5023105;28;20032;-50
2022/01/19 07:08:38;;;;;;;7.55;4.57;;;-0.20;99.90;;;;;;5013367;28;20034;-51
2022/01/19 07:11:03;;;;;;;8.65;4.65;;;-0.20;99.90;;;;;;5013475;28;20026;-52
2022/01/19 07:13:29;;;;;;;6.70;4.57;;;-0.20;99.90;;;;;;5017064;28;20438;-51
2022/01/19 07:15:54;;;;;;;6.72;4.20;;;-0.20;99.90;;;;;;5013574;28;20049;-51
2022/01/19 07:18:20;;;;;;;6.93;5.25;;;-0.20;99.90;;;;;;5016053;28;20532;-50
2022/01/19 07:20:46;;;;;;;5.95;4.60;;;-0.20;99.90;;;;;;5016799;28;20120;-51
2022/01/19 07:23:11;;;;;;;7.30;4.85;;;-0.10;99.90;;;;;;5020158;28;20063;-51
2022/01/19 07:25:37;;;;;;;6.40;4.63;;;-0.10;99.90;;;;;;5008697;28;20076;-51
2022/01/19 07:28:05;;;;;;;4.97;3.95;;;-0.10;99.90;;;;;;5019329;28;20029;-51
2022/01/19 07:30:31;;;;;;;6.15;4.65;;;-0.10;99.90;;;;;;5017132;28;20030;-51
2022/01/19 07:32:57;;;;;;;9.57;4.90;;;-0.10;99.90;;;;;;5018141;28;20028;-51
2022/01/19 07:35:22;;;;;;;7.15;5.00;;;-0.10;99.90;;;;;;5015024;28;20106;-51
2022/01/19 07:37:48;;;;;;;10.35;5.22;;;0.00;99.90;;;;;;5017255;28;20025;-51
2022/01/19 07:40:13;;;;;;;7.63;4.50;;;0.00;99.90;;;;;;5017830;28;20100;-51
2022/01/19 07:42:39;;;;;;;10.40;5.30;;;0.00;99.90;;;;;;5020807;28;20137;-51
2022/01/19 07:45:06;;;;;;;6.93;4.93;;;0.00;99.90;;;;;;5016711;28;20034;-51
2022/01/19 07:47:31;;;;;;;6.95;4.75;;;0.00;99.90;;;;;;5011423;28;20117;-52
2022/01/19 07:49:57;;;;;;;6.70;4.15;;;0.00;99.90;;;;;;5021795;28;20480;-51
2022/01/19 07:52:23;;;;;;;13.90;7.55;;;0.00;99.90;;;;;;5021608;28;20025;-52
2022/01/19 07:54:50;;;;;;;15.18;6.18;;;0.00;99.90;;;;;;5027295;28;20040;-51
2022/01/19 07:57:16;;;;;;;7.85;5.07;;;0.00;99.90;;;;;;5022301;28;20520;-52
2022/01/19 07:59:42;;;;;;;12.05;5.40;;;0.00;99.90;;;;;;5019778;28;20034;-51
2022/01/19 08:02:08;;;;;;;8.88;4.45;;;0.10;99.90;;;;;;5006335;28;20029;-52
2022/01/19 08:04:33;;;;;;;9.95;4.60;;;0.10;99.90;;;;;;5017447;28;20021;-52
2022/01/19 08:06:59;;;;;;;7.15;4.68;;;0.10;99.90;;;;;;5020116;28;20334;-51
2022/01/19 08:09:27;;;;;;;12.13;5.75;;;0.10;99.90;;;;;;5006333;28;20040;-51
2022/01/19 08:11:53;;;;;;;9.60;5.47;;;0.20;99.90;;;;;;5019630;28;20041;-52
2022/01/19 08:14:20;;;;;;;11.23;7.43;;;0.20;99.90;;;;;;5019322;28;20034;-51
2022/01/19 08:16:46;;;;;;;10.18;5.35;;;0.30;99.90;;;;;;5023497;28;20037;-51
2022/01/19 08:19:11;;;;;;;9.93;5.78;;;0.30;99.90;;;;;;5020169;28;20070;-52
2022/01/19 08:21:37;;;;;;;10.80;5.78;;;0.30;99.90;;;;;;5026687;28;20507;-50
2022/01/19 08:24:03;;;;;;;11.73;6.80;;;0.40;99.90;;;;;;5022340;28;20044;-50
2022/01/19 08:26:28;;;;;;;9.95;5.88;;;0.40;99.90;;;;;;5025418;28;20034;-51
2022/01/19 08:28:54;;;;;;;8.60;4.93;;;0.40;99.90;;;;;;5028361;28;20111;-52
2022/01/19 08:31:20;;;;;;;9.95;5.45;;;0.50;99.90;;;;;;5023006;28;20036;-50
2022/01/19 08:33:45;;;;;;;9.55;4.97;;;0.50;99.90;;;;;;5025679;28;20045;-50
2022/01/19 08:36:11;;;;;;;10.65;5.63;;;0.50;99.90;;;;;;5026118;28;20532;-50
2022/01/19 08:38:39;;;;;;;8.63;6.10;;;0.60;99.90;;;;;;5032735;28;20438;-52
2022/01/19 08:41:04;;;;;;;8.20;5.78;;;0.60;99.90;;;;;;5020161;28;20152;-50
2022/01/19 08:43:31;;;;;;;10.82;6.38;;;0.60;99.90;;;;;;5025683;28;20175;-51
2022/01/19 08:45:57;;;;;;;8.80;6.15;;;0.70;99.90;;;;;;5022512;28;20864;-50
2022/01/19 08:48:23;;;;;;;9.38;6.20;;;0.60;99.90;;;;;;5026601;28;20043;-50
2022/01/19 08:50:49;;;;;;;12.48;6.28;;;0.70;99.90;;;;;;5016258;28;20025;-52
2022/01/19 08:53:15;;;;;;;11.25;6.00;;;0.70;99.90;;;;;;5026586;28;20036;-51
2022/01/19 08:55:40;;;;;;;11.77;6.55;;;0.80;99.90;;;;;;5028945;28;20033;-51
2022/01/19 08:58:07;;;;;;;12.18;6.78;;;0.80;99.90;;;;;;5025160;28;20025;-51
2022/01/19 09:00:35;;;;;;;13.73;8.30;;;0.90;99.90;;;;;;5033316;28;20383;-52
2022/01/19 09:03:00;;;;;;;15.43;8.65;;;0.90;99.90;;;;;;5032024;28;20033;-50
2022/01/19 09:05:26;;;;;;;13.98;8.18;;;0.90;99.90;;;;;;5036230;28;20032;-51
2022/01/19 09:07:53;;;;;;;24.27;9.85;;;1.00;99.90;;;;;;5024872;28;20048;-51
2022/01/19 09:10:21;;;;;;;15.85;9.13;;;1.00;99.90;;;;;;5020131;28;20026;-50
2022/01/19 09:12:47;;;;;;;17.20;9.60;;;1.10;99.90;;;;;;5026028;28;20056;-51
2022/01/19 09:15:13;;;;;;;16.17;9.45;;;1.10;99.90;;;;;;5019972;28;20067;-50
2022/01/19 09:17:41;;;;;;;18.73;9.57;;;1.10;99.90;;;;;;5021798;28;20088;-50
2022/01/19 09:20:07;;;;;;;14.38;8.27;;;1.20;99.90;;;;;;5032513;28;20033;-51
2022/01/19 09:22:34;;;;;;;19.08;10.00;;;1.20;99.90;;;;;;5024652;28;20778;-50
2022/01/19 09:25:01;;;;;;;12.25;7.40;;;1.20;99.90;;;;;;5019998;28;21115;-51
2022/01/19 09:27:26;;;;;;;18.42;9.27;;;1.20;99.90;;;;;;5032003;28;20029;-50
2022/01/19 09:29:52;;;;;;;16.67;9.32;;;1.30;99.90;;;;;;5027724;28;20033;-50
2022/01/19 09:32:18;;;;;;;12.25;7.35;;;1.30;99.90;;;;;;5028534;28;20057;-51
2022/01/19 09:34:48;;;;;;;16.92;8.00;;;1.40;99.90;;;;;;5023685;28;20040;-51
2022/01/19 09:37:16;;;;;;;14.20;7.68;;;1.40;99.90;;;;;;5029764;28;20782;-51
2022/01/19 09:39:42;;;;;;;18.00;9.18;;;1.30;99.90;;;;;;5029664;28;20916;-50
2022/01/19 09:42:08;;;;;;;18.90;8.75;;;1.40;99.90;;;;;;5017300;28;20036;-53
2022/01/19 09:44:34;;;;;;;20.50;10.48;;;1.40;99.90;;;;;;5031005;28;20060;-51
2022/01/19 09:47:00;;;;;;;16.42;8.10;;;1.50;99.90;;;;;;5022484;28;20458;-50
2022/01/19 09:49:26;;;;;;;13.55;7.95;;;1.50;99.90;;;;;;5029146;28;20422;-51
2022/01/19 09:51:54;;;;;;;15.65;8.50;;;1.60;99.90;;;;;;5017911;28;20140;-51
2022/01/19 09:54:24;;;;;;;17.30;9.30;;;1.70;99.90;;;;;;5022428;28;20061;-51
2022/01/19 09:56:51;;;;;;;17.92;8.95;;;1.70;99.90;;;;;;5020452;28;20549;-51
2022/01/19 09:59:17;;;;;;;16.20;8.45;;;1.70;99.90;;;;;;5027032;28;20133;-50
2022/01/19 10:01:50;;;;;;;17.30;9.13;;;1.70;99.90;;;;;;5023797;28;20255;-53
2022/01/19 10:04:21;;;;;;;19.13;8.52;;;1.80;99.90;;;;;;5023427;28;20113;-51
2022/01/19 10:06:47;;;;;;;17.15;9.45;;;1.80;99.90;;;;;;5025575;28;20033;-51
2022/01/19 10:09:13;;;;;;;15.60;8.70;;;1.80;99.90;;;;;;5024633;28;20048;-53
2022/01/19 10:17:02;;;;;;;;;;;1.90;99.90;;;;;;5024856;28;20094;-51
2022/01/19 10:19:37;;;;;;;18.77;9.80;;;2.00;99.90;;;;;;5029986;28;19923;-51
2022/01/19 10:22:03;;;;;;;14.90;9.07;;;2.00;99.90;;;;;;5028903;28;20244;-50
2022/01/19 10:24:46;;;;;;;15.23;9.57;;;2.00;99.90;;;;;;5023314;28;20029;-50
2022/01/19 10:27:23;;;;;;;15.55;9.38;;;2.10;99.90;;;;;;5024936;28;20057;-50
2022/01/19 10:29:54;;;;;;;14.93;8.40;;;2.10;99.90;;;;;;5027310;28;20021;-51
2022/01/19 10:32:25;;;;;;;14.25;9.35;;;2.10;99.90;;;;;;5026229;28;20030;-50
2022/01/19 10:34:52;;;;;;;18.67;9.45;;;2.10;99.90;;;;;;5025715;28;20128;-51
2022/01/19 10:37:25;;;;;;;26.15;10.15;;;2.10;99.90;;;;;;5016939;28;20025;-50
2022/01/19 10:39:54;;;;;;;17.33;9.27;;;2.20;99.90;;;;;;5020082;28;20061;-51
2022/01/19 10:42:27;;;;;;;12.95;8.25;;;2.20;99.90;;;;;;5018810;28;20029;-50
2022/01/19 10:45:00;;;;;;;16.80;9.70;;;2.30;99.90;;;;;;5025045;28;20064;-50
2022/01/19 10:47:43;;;;;;;15.88;8.68;;;2.30;99.90;;;;;;5020484;28;20379;-50
2022/01/19 10:50:21;;;;;;;22.67;9.68;;;2.40;99.90;;;;;;5020635;28;20406;-52
2022/01/19 10:52:48;;;;;;;18.77;10.63;;;2.40;99.90;;;;;;5024754;28;20041;-51
2022/01/19 10:55:24;;;;;;;19.27;10.30;;;2.50;99.90;;;;;;5023790;28;20171;-50
2022/01/19 10:57:51;;;;;;;16.88;9.20;;;2.50;99.90;;;;;;5021816;28;20120;-50
2022/01/19 11:00:28;;;;;;;15.70;8.23;;;2.50;99.90;;;;;;5020589;28;20036;-51
2022/01/19 11:02:57;;;;;;;18.17;9.63;;;2.50;99.90;;;;;;5020040;28;20036;-51
2022/01/19 11:05:45;;;;;;;18.35;9.25;;;2.50;99.90;;;;;;5028386;28;20035;-50
2022/01/19 11:08:11;;;;;;;;;;;2.60;99.90;;;;;;5015781;28;20029;-50
2022/01/19 11:10:38;;;;;;;15.48;9.10;;;2.70;99.90;;;;;;5020063;28;20796;-50
2022/01/19 11:13:06;;;;;;;15.98;8.90;;;2.70;99.90;;;;;;5028235;28;20502;-50
2022/01/19 11:15:32;;;;;;;16.73;8.35;;;2.70;99.90;;;;;;5017731;28;20033;-50
2022/01/19 11:17:58;;;;;;;16.98;9.05;;;2.70;99.90;;;;;;5026307;28;20029;-52
2022/01/19 11:20:24;;;;;;;17.95;9.35;;;2.80;99.90;;;;;;5018802;28;20034;-50
2022/01/19 11:22:53;;;;;;;20.52;9.63;;;2.80;99.90;;;;;;5015506;28;20504;-50
2022/01/19 11:25:27;;;;;;;16.35;9.55;;;2.80;99.90;;;;;;5022395;28;20096;-50
2022/01/19 11:27:54;;;;;;;16.55;10.00;;;2.80;99.90;;;;;;5017391;28;20040;-50
2022/01/19 11:30:27;;;;;;;18.85;9.30;;;2.90;99.90;;;;;;5020122;28;20080;-49
2022/01/19 11:33:28;;;;;;;19.50;10.32;;;2.90;99.90;;;;;;5019428;28;20064;-50
2022/01/19 11:36:01;;;;;;;15.40;9.30;;;2.90;99.90;;;;;;5018066;28;20108;-51
2022/01/19 11:38:48;;;;;;;17.48;8.82;;;2.90;99.90;;;;;;5021972;28;20033;-51
2022/01/19 11:41:13;;;;;;;21.02;9.82;;;3.00;99.90;;;;;;5020651;28;20052;-51
2022/01/19 11:43:49;;;;;;;19.80;11.07;;;3.10;99.90;;;;;;5015021;28;20038;-51
2022/01/19 11:46:36;;;;;;;17.88;9.30;;;3.10;99.90;;;;;;5017419;28;20033;-51
2022/01/19 11:49:04;;;;;;;20.63;10.43;;;3.20;99.90;;;;;;5027376;28;20048;-51
2022/01/19 11:51:38;;;;;;;18.75;10.38;;;3.20;99.90;;;;;;5026808;28;20095;-51
2022/01/19 11:54:17;;;;;;;14.57;8.85;;;3.30;99.90;;;;;;5021596;28;20989;-53
2022/01/19 11:57:04;;;;;;;18.75;10.02;;;3.30;99.90;;;;;;5026543;28;20037;-51
2022/01/19 11:59:47;;;;;;;15.45;8.68;;;3.40;99.90;;;;;;5023425;28;20025;-51
2022/01/19 12:02:26;;;;;;;16.25;9.18;;;3.50;99.90;;;;;;5019972;28;20050;-50
2022/01/19 12:04:58;;;;;;;;;;;3.60;99.90;;;;;;5026014;28;20111;-51
2022/01/19 12:07:43;;;;;;;19.45;9.20;;;3.60;99.90;;;;;;5035662;28;20428;-52
2022/01/19 12:10:20;;;;;;;13.60;8.05;;;3.60;99.90;;;;;;5026381;28;20109;-52
2022/01/19 12:16:07;;;;;;;16.75;8.93;;;3.70;99.90;;;;;;5028592;28;20047;-52
2022/01/19 12:18:47;;;;;;;12.57;6.55;;;3.80;99.90;;;;;;5022169;28;20032;-51
2022/01/19 12:21:32;;;;;;;13.10;8.25;;;3.80;99.90;;;;;;5027668;28;20037;-50
2022/01/19 12:24:25;;;;;;;17.45;8.75;;;3.90;99.90;;;;;;5023723;28;20029;-50
2022/01/19 12:27:14;;;;;;;16.13;9.35;;;3.90;99.90;;;;;;5025505;28;20112;-50
2022/01/19 12:29:42;;;;;;;12.45;7.22;;;4.00;99.90;;;;;;5020628;28;20044;-50
2022/01/19 12:32:16;;;;;;;11.40;7.00;;;4.10;99.90;;;;;;5024615;28;20490;-50
2022/01/19 12:34:46;;;;;;;14.55;8.23;;;4.10;99.90;;;;;;5018455;28;20190;-51
2022/01/19 12:37:33;;;;;;;13.23;7.63;;;4.10;99.90;;;;;;5048020;28;20763;-52
2022/01/19 12:40:02;;;;;;;18.13;8.60;;;4.20;99.90;;;;;;5025027;28;20561;-50
2022/01/19 12:42:52;;;;;;;15.55;8.13;;;4.20;99.90;;;;;;5026508;28;20076;-51
2022/01/19 12:45:39;;;;;;;16.73;9.32;;;4.20;99.90;;;;;;5029291;28;20029;-50
2022/01/19 12:48:06;;;;;;;14.60;7.90;;;4.20;99.90;;;;;;5022379;28;20029;-50
2022/01/19 12:50:47;;;;;;;14.65;8.63;;;4.30;99.90;;;;;;5017757;28;20033;-52
2022/01/19 12:53:23;;;;;;;10.63;6.00;;;4.40;99.90;;;;;;5028628;28;20044;-52
2022/01/19 12:55:52;;;;;;;12.63;7.57;;;4.50;99.90;;;;;;5028054;28;20034;-50
2022/01/19 12:58:27;;;;;;;13.05;8.05;;;4.50;99.90;;;;;;5026886;28;20489;-50
2022/01/19 13:00:56;;;;;;;11.93;7.30;;;4.50;99.90;;;;;;5017760;28;20065;-51
2022/01/19 13:03:44;;;;;;;12.73;7.35;;;4.50;99.90;;;;;;5023264;28;21059;-51
2022/01/19 13:06:14;;;;;;;17.17;8.15;;;4.60;99.90;;;;;;5027309;28;20497;-50
2022/01/19 13:08:54;;;;;;;15.00;8.63;;;4.60;99.90;;;;;;5023355;28;20026;-50
2022/01/19 13:11:30;;;;;;;15.77;8.23;;;4.60;99.90;;;;;;5032632;28;20035;-51
2022/01/19 13:13:59;;;;;;;18.83;8.93;;;4.70;99.90;;;;;;5020952;28;20075;-50
2022/01/19 13:16:31;;;;;;;14.88;8.10;;;4.80;99.90;;;;;;5026964;28;20029;-52
2022/01/19 13:19:03;;;;;;;20.77;8.60;;;4.90;99.90;;;;;;5008807;28;20029;-50
2022/01/19 13:21:29;;;;;;;11.48;7.53;;;5.00;99.90;;;;;;5011581;28;20140;-53
2022/01/19 13:24:11;;;;;;;16.65;8.35;;;5.00;99.90;;;;;;5016498;28;20030;-51
2022/01/19 13:26:40;;;;;;;13.98;8.25;;;5.10;99.90;;;;;;5019276;28;20026;-52
2022/01/19 13:29:36;;;;;;;14.65;7.80;;;5.10;99.90;;;;;;5018086;28;20026;-52
2022/01/19 13:32:12;;;;;;;12.55;7.63;;;5.10;99.90;;;;;;5015184;28;20812;-51
2022/01/19 13:34:55;;;;;;;11.93;7.30;;;5.10;99.90;;;;;;5016912;28;20075;-51
2022/01/19 13:37:30;;;;;;;13.93;7.43;;;5.10;99.90;;;;;;5030352;28;20034;-50
2022/01/19 13:40:07;;;;;;;15.45;8.13;;;5.20;99.90;;;;;;5031354;28;20045;-52
2022/01/19 13:42:41;;;;;;;14.07;7.50;;;5.20;99.90;;;;;;5021804;28;20079;-51
2022/01/19 13:45:13;;;;;;;15.23;7.88;;;5.20;99.90;;;;;;5028734;28;20691;-51
2022/01/19 13:48:44;;;;;;;16.00;8.23;;;5.20;99.90;;;;;;5023809;28;20040;-51
2022/01/19 13:50:53;;;;;;;14.05;7.47;;;5.30;99.90;;;;;;5016354;28;20046;-52
2022/01/19 13:53:31;;;;;;;9.98;6.15;;;5.30;99.90;;;;;;5025900;28;20167;-53
2022/01/19 13:55:58;;;;;;;12.20;7.35;;;5.30;99.90;;;;;;5023492;28;20033;-53
2022/01/19 13:58:35;;;;;;;12.13;6.70;;;5.30;99.90;;;;;;5014098;28;20065;-52
2022/01/19 14:01:07;;;;;;;12.18;7.55;;;5.40;99.90;;;;;;5023077;28;20046;-51
2022/01/19 14:03:50;;;;;;;11.27;6.18;;;5.40;99.90;;;;;;5017062;28;20045;-51
2022/01/19 14:06:22;;;;;;;12.57;6.63;;;5.40;99.90;;;;;;5018799;28;20095;-50
2022/01/19 14:08:48;;;;;;;13.43;6.13;;;5.50;99.90;;;;;;5030968;28;20821;-50
2022/01/19 14:11:24;;;;;;;10.88;6.20;;;5.50;99.90;;;;;;5010399;28;20104;-50
2022/01/19 14:14:01;;;;;;;13.95;7.35;;;5.50;99.90;;;;;;5019143;28;20116;-56
2022/01/19 14:16:32;;;;;;;11.00;6.80;;;5.50;99.90;;;;;;5028850;28;20072;-51
2022/01/19 14:19:28;;;;;;;12.73;7.65;;;5.50;99.90;;;;;;5026745;28;20033;-50
2022/01/19 14:22:06;;;;;;;10.70;6.00;;;5.50;99.90;;;;;;5008244;28;20249;-51
2022/01/19 14:24:44;;;;;;;12.48;7.10;;;5.50;99.90;;;;;;5025615;28;20137;-51
2022/01/19 14:27:24;;;;;;;13.35;7.32;;;5.40;99.90;;;;;;5019736;28;20048;-51